Terminal Aerodrome Forecast
Issued by NWS Cleveland, OH

Home | Current Version | Previous Version | Text Only | Print | Product List | Glossary On
Versions: 1 2 3 4 5 6 7 8 9 10 11 12 13 14 15 16 17 18 19 20 21
000
FTUS41 KCLE 300100 AAA
TAFTOL
TAF AMD
KTOL 300100Z 3001/3024 05008KT P6SM VCSH OVC008
      TEMPO 3001/3003 5SM -SHRA BR BKN012
     FM300300 05010KT 4SM BR OVC005
     FM301500 07010KT P6SM -SHRA BKN008 BKN015
     FM301900 06010KT P6SM BKN014=

USA.gov is the U.S. government's official web portal to all federal, state and local government web resources and services.